Time;durP1;ratioP1;P1;durP2;ratioP2;P2;SDS_P1;SDS_P2;PMS_P1;PMS_P2;Temp;Humidity;BMP_temperature;BMP_pressure;BME280_temperature;BME280_humidity;BME280_pressure;Samples;Min_cycle;Max_cycle;Signal;HPM_P1;HPM_P2
2023/05/28 00:00:44;;;;;;;15.90;7.38;;;12.00;99.90;;;;;;5071018;28;20041;-33
2023/05/28 00:03:10;;;;;;;15.00;6.72;;;12.00;99.90;;;;;;5054418;28;20041;-32
2023/05/28 00:05:36;;;;;;;15.55;6.75;;;12.00;99.90;;;;;;5050868;28;20049;-32
2023/05/28 00:08:02;;;;;;;16.55;6.78;;;11.80;99.90;;;;;;5052744;28;20040;-34
2023/05/28 00:10:28;;;;;;;15.02;6.60;;;11.90;99.90;;;;;;5070884;28;20219;-32
2023/05/28 00:12:54;;;;;;;12.40;6.43;;;11.80;99.90;;;;;;5071910;28;20082;-32
2023/05/28 00:15:20;;;;;;;13.68;6.53;;;11.80;99.90;;;;;;5055583;28;20037;-32
2023/05/28 00:17:46;;;;;;;16.27;6.35;;;11.70;99.90;;;;;;5054472;28;20393;-32
2023/05/28 00:20:12;;;;;;;14.38;6.55;;;11.60;99.90;;;;;;5054443;28;20033;-32
2023/05/28 00:22:38;;;;;;;14.93;7.10;;;11.60;99.90;;;;;;5058638;28;20099;-32
2023/05/28 00:25:04;;;;;;;11.98;5.90;;;11.60;99.90;;;;;;5071299;28;20506;-32
2023/05/28 00:27:30;;;;;;;13.32;6.78;;;11.60;99.90;;;;;;5054404;28;20056;-32
2023/05/28 00:29:56;;;;;;;15.80;7.35;;;11.60;99.90;;;;;;5054229;28;20190;-33
2023/05/28 00:32:22;;;;;;;17.10;7.40;;;11.50;99.90;;;;;;5054342;28;20112;-32
2023/05/28 00:34:47;;;;;;;13.25;6.90;;;11.40;99.90;;;;;;5054276;28;20116;-33
2023/05/28 00:37:13;;;;;;;15.88;6.50;;;11.40;99.90;;;;;;5053282;28;20041;-33
2023/05/28 00:39:40;;;;;;;14.40;7.05;;;11.30;99.90;;;;;;5053667;28;20048;-32
2023/05/28 00:42:10;;;;;;;15.25;6.72;;;11.30;99.90;;;;;;5053438;28;20045;-32
2023/05/28 00:44:37;;;;;;;14.43;6.90;;;11.30;99.90;;;;;;5065406;28;20045;-32
2023/05/28 00:47:04;;;;;;;17.02;6.95;;;11.20;99.90;;;;;;5073126;28;20072;-32
2023/05/28 00:49:30;;;;;;;12.70;5.90;;;11.20;99.90;;;;;;5073010;28;20037;-33
2023/05/28 00:51:56;;;;;;;15.15;6.93;;;11.10;99.90;;;;;;5073392;28;20089;-33
2023/05/28 00:54:26;;;;;;;12.63;7.05;;;11.10;99.90;;;;;;5072968;28;20067;-32
2023/05/28 00:56:57;;;;;;;11.38;6.57;;;11.00;99.90;;;;;;5073115;28;20090;-33
2023/05/28 00:59:28;;;;;;;15.52;7.00;;;11.00;99.90;;;;;;5073135;28;20485;-32
2023/05/28 01:01:54;;;;;;;14.10;6.85;;;11.00;99.90;;;;;;5073350;28;20059;-32
2023/05/28 01:04:22;;;;;;;15.68;7.28;;;10.90;99.90;;;;;;5055113;28;20037;-32
2023/05/28 01:06:48;;;;;;;11.73;7.03;;;10.90;99.90;;;;;;5052926;28;20041;-32
2023/05/28 01:09:15;;;;;;;14.20;6.57;;;10.90;99.90;;;;;;5052906;28;20517;-32
2023/05/28 01:11:43;;;;;;;13.75;6.75;;;10.90;99.90;;;;;;5052771;28;20040;-32
2023/05/28 01:14:11;;;;;;;13.52;6.22;;;10.90;99.90;;;;;;5053809;28;20036;-33
2023/05/28 01:16:37;;;;;;;14.90;7.15;;;10.80;99.90;;;;;;5053023;28;20378;-32
2023/05/28 01:19:08;;;;;;;15.27;7.05;;;10.80;99.90;;;;;;5052873;28;20033;-32
2023/05/28 01:21:41;;;;;;;15.95;7.30;;;10.80;99.90;;;;;;5070393;28;20093;-32
2023/05/28 01:24:08;;;;;;;15.40;7.03;;;10.70;99.90;;;;;;5069228;28;20076;-32
2023/05/28 01:26:35;;;;;;;14.02;6.68;;;10.80;99.90;;;;;;5052988;28;20078;-32
2023/05/28 01:29:00;;;;;;;12.07;6.68;;;10.70;99.90;;;;;;5052391;28;20501;-32
2023/05/28 01:31:26;;;;;;;16.73;6.88;;;10.80;99.90;;;;;;5071091;28;20064;-32
2023/05/28 01:33:52;;;;;;;18.35;7.65;;;10.70;99.90;;;;;;5059966;28;20094;-32
2023/05/28 01:36:28;;;;;;;14.95;7.15;;;10.70;99.90;;;;;;5053935;28;20122;-32
2023/05/28 01:38:58;;;;;;;12.52;7.40;;;10.70;99.90;;;;;;5063065;28;20028;-32
2023/05/28 01:41:26;;;;;;;15.70;7.30;;;10.60;99.90;;;;;;5072220;28;20119;-32
2023/05/28 01:43:53;;;;;;;12.57;6.50;;;10.60;99.90;;;;;;5068180;28;20398;-32
2023/05/28 01:46:20;;;;;;;13.45;6.35;;;10.70;99.90;;;;;;5052466;28;20395;-32
2023/05/28 01:48:47;;;;;;;14.85;7.90;;;10.60;99.90;;;;;;5051936;28;20072;-32
2023/05/28 01:51:20;;;;;;;14.43;6.63;;;10.50;99.90;;;;;;5052364;28;20470;-32
2023/05/28 01:53:51;;;;;;;12.98;6.47;;;10.50;99.90;;;;;;5055128;28;20032;-32
2023/05/28 01:56:17;;;;;;;13.48;6.70;;;10.50;99.90;;;;;;5061852;28;20037;-32
2023/05/28 01:58:43;;;;;;;14.43;7.35;;;10.50;99.90;;;;;;5067600;28;20101;-32
2023/05/28 02:01:24;;;;;;;14.52;6.97;;;10.40;99.90;;;;;;5071762;28;20090;-32
2023/05/28 02:03:50;;;;;;;15.30;7.97;;;10.40;99.90;;;;;;5071550;28;20036;-32
2023/05/28 02:06:15;;;;;;;11.57;6.60;;;10.40;99.90;;;;;;5071850;28;20048;-32
2023/05/28 02:08:41;;;;;;;13.15;7.55;;;10.30;99.90;;;;;;5071605;28;20367;-32
2023/05/28 02:11:07;;;;;;;12.60;6.75;;;10.30;99.90;;;;;;5071931;28;20041;-32
2023/05/28 02:13:33;;;;;;;15.23;7.35;;;10.30;99.90;;;;;;5071474;28;20043;-32
2023/05/28 02:15:59;;;;;;;18.75;7.47;;;10.30;99.90;;;;;;5054164;28;20050;-32
2023/05/28 02:18:24;;;;;;;16.17;6.88;;;10.30;99.90;;;;;;5051376;28;20083;-32
2023/05/28 02:20:50;;;;;;;13.05;7.10;;;10.30;99.90;;;;;;5051246;28;20044;-32
2023/05/28 02:23:16;;;;;;;12.50;6.70;;;10.30;99.90;;;;;;5071454;28;20045;-32
2023/05/28 02:25:41;;;;;;;15.52;7.05;;;10.30;99.90;;;;;;5071342;28;20421;-32
2023/05/28 02:28:07;;;;;;;15.68;7.43;;;10.40;99.90;;;;;;5071587;28;20370;-32
2023/05/28 02:30:33;;;;;;;16.83;7.65;;;10.50;99.90;;;;;;5071442;28;20040;-32
2023/05/28 02:32:59;;;;;;;13.27;7.18;;;10.40;99.90;;;;;;5057075;28;20029;-32
2023/05/28 02:35:24;;;;;;;15.75;6.90;;;10.40;99.90;;;;;;5051181;28;20044;-32
2023/05/28 02:37:50;;;;;;;13.68;7.63;;;10.50;99.90;;;;;;5051056;28;20522;-32
2023/05/28 02:40:16;;;;;;;16.85;8.27;;;10.50;99.90;;;;;;5050886;28;20047;-32
2023/05/28 02:42:42;;;;;;;14.05;7.82;;;10.60;99.90;;;;;;5059738;28;20466;-31
2023/05/28 02:45:08;;;;;;;13.50;8.05;;;10.60;99.90;;;;;;5071322;28;20040;-32
2023/05/28 02:47:34;;;;;;;17.58;8.35;;;10.60;99.90;;;;;;5052302;28;20036;-32
2023/05/28 02:50:00;;;;;;;18.45;8.48;;;10.70;99.90;;;;;;5050844;28;20029;-32
2023/05/28 02:52:26;;;;;;;18.60;9.10;;;10.70;99.90;;;;;;5051088;28;20082;-33
2023/05/28 02:54:52;;;;;;;12.75;7.75;;;10.80;99.90;;;;;;5050838;28;20049;-32
2023/05/28 02:57:18;;;;;;;13.02;8.35;;;10.80;99.90;;;;;;5050546;28;20037;-32
2023/05/28 02:59:43;;;;;;;18.13;8.82;;;10.70;99.90;;;;;;5050813;28;20128;-32
2023/05/28 03:02:09;;;;;;;19.50;8.05;;;10.80;99.90;;;;;;5051211;28;20056;-32
2023/05/28 03:04:35;;;;;;;17.35;7.95;;;10.80;99.90;;;;;;5051336;28;20556;-32
2023/05/28 03:07:02;;;;;;;14.00;7.78;;;10.80;99.90;;;;;;5051000;28;20084;-33
2023/05/28 03:09:28;;;;;;;19.10;8.23;;;10.90;99.90;;;;;;5050530;28;20045;-33
2023/05/28 03:11:53;;;;;;;15.15;8.25;;;10.80;99.90;;;;;;5050945;28;20032;-32
2023/05/28 03:14:19;;;;;;;15.80;7.95;;;10.90;99.90;;;;;;5053413;28;20405;-32
2023/05/28 03:16:45;;;;;;;16.55;7.65;;;10.80;99.90;;;;;;5070937;28;20241;-33
2023/05/28 03:19:11;;;;;;;17.30;8.32;;;10.90;99.90;;;;;;5069549;28;20063;-32
2023/05/28 03:21:37;;;;;;;17.65;7.88;;;10.90;99.90;;;;;;5070641;28;20041;-32
2023/05/28 03:24:03;;;;;;;18.23;8.27;;;10.90;99.90;;;;;;5070590;28;20397;-32
2023/05/28 03:26:29;;;;;;;13.80;7.65;;;10.90;99.90;;;;;;5070779;28;20048;-32
2023/05/28 03:28:55;;;;;;;14.88;7.60;;;11.00;99.90;;;;;;5070572;28;20045;-32
2023/05/28 03:31:25;;;;;;;16.58;8.18;;;10.90;99.90;;;;;;5054102;28;20134;-32
2023/05/28 03:33:51;;;;;;;14.70;7.72;;;10.90;99.90;;;;;;5051928;28;20065;-32
2023/05/28 03:36:17;;;;;;;19.15;8.15;;;10.90;99.90;;;;;;5033689;28;20568;-32
2023/05/28 03:38:43;;;;;;;16.08;7.85;;;10.90;99.90;;;;;;5050305;28;20127;-32
2023/05/28 03:41:09;;;;;;;15.55;7.93;;;11.00;99.90;;;;;;5050271;28;20128;-32
2023/05/28 03:43:35;;;;;;;13.93;7.72;;;10.90;99.90;;;;;;5050744;28;20099;-32
2023/05/28 03:46:00;;;;;;;16.63;7.78;;;10.90;99.90;;;;;;5050656;28;20037;-31
2023/05/28 03:48:26;;;;;;;15.10;7.93;;;10.90;99.90;;;;;;5050452;28;20372;-32
2023/05/28 03:50:52;;;;;;;22.33;8.82;;;10.90;99.90;;;;;;5051149;28;20043;-33
2023/05/28 03:53:18;;;;;;;17.65;8.40;;;10.90;99.90;;;;;;5066312;28;20045;-32
2023/05/28 03:55:44;;;;;;;16.10;7.70;;;10.90;99.90;;;;;;5074138;28;20486;-32
2023/05/28 03:58:14;;;;;;;15.57;7.53;;;10.90;99.90;;;;;;5074296;28;20041;-32
2023/05/28 04:00:40;;;;;;;21.75;8.80;;;10.90;99.90;;;;;;5074223;28;20059;-33
2023/05/28 04:03:06;;;;;;;18.63;7.82;;;10.90;99.90;;;;;;5055016;28;20048;-32
2023/05/28 04:05:33;;;;;;;12.45;7.18;;;10.90;99.90;;;;;;5054177;28;20041;-33
2023/05/28 04:07:59;;;;;;;16.83;7.32;;;10.90;99.90;;;;;;5053777;28;20080;-32
2023/05/28 04:10:25;;;;;;;17.98;7.85;;;11.00;99.90;;;;;;5054317;28;20068;-32
2023/05/28 04:12:54;;;;;;;16.50;7.40;;;11.00;99.90;;;;;;5054089;28;20034;-31
2023/05/28 04:15:20;;;;;;;16.55;7.15;;;11.10;99.90;;;;;;5054331;28;20531;-32
2023/05/28 04:17:46;;;;;;;14.73;7.97;;;11.10;99.90;;;;;;5062797;28;20045;-32
2023/05/28 04:20:12;;;;;;;14.30;8.27;;;11.20;99.90;;;;;;5073999;28;20508;-34
2023/05/28 04:22:38;;;;;;;17.23;7.32;;;11.20;99.90;;;;;;5074043;28;20131;-32
2023/05/28 04:25:04;;;;;;;14.13;7.15;;;11.10;99.90;;;;;;5068666;28;20033;-32
2023/05/28 04:27:30;;;;;;;17.67;7.88;;;11.20;99.90;;;;;;5056248;28;20037;-32
2023/05/28 04:29:56;;;;;;;18.00;8.15;;;11.20;99.90;;;;;;5073687;28;20512;-32
2023/05/28 04:32:23;;;;;;;15.88;7.45;;;11.30;99.90;;;;;;5060214;28;20044;-32
2023/05/28 04:34:51;;;;;;;13.90;7.78;;;11.30;99.90;;;;;;5059513;28;20040;-32
2023/05/28 04:37:17;;;;;;;15.63;7.28;;;11.30;99.90;;;;;;5073796;28;20163;-32
2023/05/28 04:39:43;;;;;;;16.65;7.45;;;11.20;99.90;;;;;;5069300;28;20095;-32
2023/05/28 04:42:13;;;;;;;15.82;7.18;;;11.30;99.90;;;;;;5054084;28;20482;-32
2023/05/28 04:44:40;;;;;;;16.45;7.35;;;11.30;99.90;;;;;;5050005;28;20489;-32
2023/05/28 04:47:06;;;;;;;18.17;7.45;;;11.30;99.90;;;;;;5054061;28;20045;-31
2023/05/28 04:49:31;;;;;;;14.90;7.13;;;11.30;99.90;;;;;;5053198;28;20490;-31
2023/05/28 04:51:57;;;;;;;16.48;7.65;;;11.30;99.90;;;;;;5053313;28;20033;-32
2023/05/28 04:54:23;;;;;;;16.00;7.22;;;11.30;99.90;;;;;;5053419;28;20067;-32
2023/05/28 04:56:49;;;;;;;12.45;6.75;;;11.30;99.90;;;;;;5067206;28;20060;-33
2023/05/28 04:59:15;;;;;;;13.43;6.75;;;11.30;99.90;;;;;;5053178;28;20072;-32
2023/05/28 05:01:41;;;;;;;15.45;7.00;;;11.20;99.90;;;;;;5052862;28;20437;-32
2023/05/28 05:04:08;;;;;;;14.98;7.22;;;11.20;99.90;;;;;;5053191;28;20460;-32
2023/05/28 05:06:34;;;;;;;19.20;7.90;;;11.30;99.90;;;;;;5052678;28;20081;-32
2023/05/28 05:08:59;;;;;;;14.13;7.40;;;11.40;99.90;;;;;;5064109;28;20068;-32
2023/05/28 05:11:26;;;;;;;19.73;8.35;;;11.40;99.90;;;;;;5056460;28;20155;-32
2023/05/28 05:13:53;;;;;;;18.92;8.27;;;11.50;99.90;;;;;;5072879;28;20036;-32
2023/05/28 05:16:20;;;;;;;14.88;7.57;;;11.60;99.90;;;;;;5072813;28;20102;-32
2023/05/28 05:18:46;;;;;;;13.88;7.60;;;11.60;99.90;;;;;;5072807;28;20459;-33
2023/05/28 05:21:12;;;;;;;18.52;8.20;;;11.70;99.90;;;;;;5073047;28;20044;-36
2023/05/28 05:23:40;;;;;;;16.67;8.20;;;11.80;99.90;;;;;;5072733;28;20048;-32
2023/05/28 05:26:09;;;;;;;14.98;7.63;;;11.90;99.90;;;;;;5072498;28;20044;-33
2023/05/28 05:28:36;;;;;;;16.58;8.10;;;12.00;99.90;;;;;;5052720;28;20482;-32
2023/05/28 05:31:02;;;;;;;18.20;8.32;;;12.00;99.90;;;;;;5066139;28;20121;-32
2023/05/28 05:33:28;;;;;;;13.15;7.20;;;12.10;99.90;;;;;;5072656;28;20123;-34
2023/05/28 05:35:54;;;;;;;15.13;8.32;;;12.10;99.90;;;;;;5039243;28;20040;-32
2023/05/28 05:38:20;;;;;;;16.52;8.52;;;12.30;99.90;;;;;;5072488;28;20094;-33
2023/05/28 05:40:46;;;;;;;15.20;7.65;;;12.30;99.90;;;;;;5072493;28;20052;-32
2023/05/28 05:43:12;;;;;;;14.93;8.50;;;12.50;99.90;;;;;;5072534;28;20456;-33
2023/05/28 05:45:38;;;;;;;14.88;7.75;;;12.50;99.90;;;;;;5071912;28;20506;-32
2023/05/28 05:48:04;;;;;;;16.25;7.82;;;12.70;99.90;;;;;;5072238;28;20029;-33
2023/05/28 05:50:30;;;;;;;14.07;7.70;;;12.80;99.90;;;;;;5055505;28;20041;-33
2023/05/28 05:52:56;;;;;;;15.48;8.10;;;12.80;99.90;;;;;;5052056;28;20407;-33
2023/05/28 05:55:21;;;;;;;17.40;7.78;;;13.00;99.90;;;;;;5051816;28;20123;-33
2023/05/28 05:57:49;;;;;;;17.73;7.93;;;13.20;99.90;;;;;;5052017;28;20033;-33
2023/05/28 06:00:15;;;;;;;15.00;8.10;;;13.30;99.90;;;;;;5052188;28;20120;-33
2023/05/28 06:02:41;;;;;;;18.50;7.90;;;13.30;99.90;;;;;;5070905;28;20478;-33
2023/05/28 06:05:08;;;;;;;14.63;7.00;;;13.40;99.90;;;;;;5061163;28;20072;-33
2023/05/28 06:07:39;;;;;;;14.15;6.88;;;13.60;99.90;;;;;;5067546;28;20048;-34
2023/05/28 06:10:06;;;;;;;15.27;7.13;;;13.70;99.90;;;;;;5059491;28;20044;-33
2023/05/28 06:12:32;;;;;;;18.02;8.43;;;13.80;99.90;;;;;;5070801;28;20098;-33
2023/05/28 06:15:00;;;;;;;14.57;6.85;;;14.10;99.90;;;;;;5045660;28;20032;-33
2023/05/28 06:17:27;;;;;;;16.30;7.07;;;14.10;99.90;;;;;;5051932;28;20482;-33
2023/05/28 06:19:53;;;;;;;14.40;6.85;;;14.20;99.90;;;;;;5058268;28;20046;-33
2023/05/28 06:22:20;;;;;;;13.48;6.45;;;14.40;99.90;;;;;;5061928;28;20124;-32
2023/05/28 06:24:48;;;;;;;12.27;6.78;;;14.70;99.90;;;;;;5051365;28;20044;-33
2023/05/28 06:27:14;;;;;;;11.45;6.75;;;14.60;99.90;;;;;;5051696;28;20509;-33
2023/05/28 06:29:41;;;;;;;12.55;6.65;;;14.80;99.90;;;;;;5052542;28;20029;-33
2023/05/28 06:32:07;;;;;;;11.73;5.40;;;14.90;99.90;;;;;;5051610;28;20475;-33
2023/05/28 06:34:32;;;;;;;11.98;5.38;;;15.20;99.90;;;;;;5051079;28;20080;-33
2023/05/28 06:36:58;;;;;;;9.70;5.22;;;15.10;99.90;;;;;;5051207;28;20040;-34
2023/05/28 06:39:26;;;;;;;10.77;5.25;;;15.40;99.90;;;;;;5050868;28;20041;-33
2023/05/28 06:41:51;;;;;;;9.25;5.30;;;15.50;99.90;;;;;;5055451;28;20044;-34
2023/05/28 06:44:17;;;;;;;11.45;5.55;;;15.50;99.90;;;;;;5051296;28;20056;-33
2023/05/28 06:46:43;;;;;;;12.10;5.80;;;15.50;99.90;;;;;;5051288;28;20041;-33
2023/05/28 06:49:09;;;;;;;9.82;4.90;;;15.50;99.90;;;;;;5051063;28;20036;-33
2023/05/28 06:51:36;;;;;;;11.93;5.32;;;15.50;99.90;;;;;;5051225;28;20106;-33
2023/05/28 06:54:02;;;;;;;10.65;5.28;;;15.50;99.90;;;;;;5034270;28;20049;-33
2023/05/28 06:56:28;;;;;;;11.45;5.65;;;15.60;99.90;;;;;;5050801;28;20095;-33
2023/05/28 06:58:54;;;;;;;11.20;5.70;;;15.60;99.90;;;;;;5051154;28;20044;-33
2023/05/28 07:01:20;;;;;;;10.32;5.22;;;15.60;99.90;;;;;;5050742;28;20048;-33
2023/05/28 07:03:46;;;;;;;13.40;5.32;;;15.70;99.90;;;;;;5050725;28;20041;-33
2023/05/28 07:06:12;;;;;;;10.48;5.45;;;15.80;99.90;;;;;;5033979;28;20094;-33
2023/05/28 07:08:44;;;;;;;13.05;4.97;;;15.90;99.90;;;;;;5051080;28;20036;-33
2023/05/28 07:11:12;;;;;;;10.00;4.82;;;16.00;99.90;;;;;;5050987;28;20044;-33
2023/05/28 07:13:39;;;;;;;10.32;4.93;;;16.30;99.90;;;;;;5052183;28;20044;-34
2023/05/28 07:16:07;;;;;;;9.60;5.03;;;16.50;99.90;;;;;;5050949;28;20041;-34
2023/05/28 07:18:33;;;;;;;12.70;5.00;;;16.60;99.90;;;;;;5041853;28;20048;-33
2023/05/28 07:20:59;;;;;;;10.82;5.65;;;16.90;99.90;;;;;;5070390;28;20397;-33
2023/05/28 07:23:25;;;;;;;14.00;5.82;;;17.10;99.90;;;;;;5070587;28;20044;-33
2023/05/28 07:25:50;;;;;;;13.15;5.38;;;17.20;99.90;;;;;;5069918;28;20037;-34
2023/05/28 07:28:17;;;;;;;11.95;5.05;;;17.40;99.90;;;;;;5070670;28;20411;-33
2023/05/28 07:30:42;;;;;;;11.40;5.40;;;17.70;99.90;;;;;;5070850;28;20355;-34
2023/05/28 07:33:08;;;;;;;11.73;5.22;;;17.90;99.90;;;;;;5070754;28;20043;-33
2023/05/28 07:35:35;;;;;;;12.63;5.07;;;18.00;99.90;;;;;;5063125;28;20532;-33
2023/05/28 07:38:02;;;;;;;8.90;5.20;;;18.20;99.90;;;;;;5050441;28;20040;-34
2023/05/28 07:40:28;;;;;;;15.45;5.50;;;18.40;99.90;;;;;;5050382;28;20069;-33
2023/05/28 07:42:53;;;;;;;12.60;5.93;;;18.40;99.90;;;;;;5050634;28;20064;-33
2023/05/28 07:45:19;;;;;;;10.98;5.03;;;18.60;99.90;;;;;;5070234;28;20041;-33
2023/05/28 07:47:46;;;;;;;11.75;6.10;;;18.60;99.90;;;;;;5068164;28;20053;-34
2023/05/28 07:50:13;;;;;;;11.95;6.10;;;18.60;99.90;;;;;;5050210;28;20052;-33
2023/05/28 07:52:40;;;;;;;9.98;5.47;;;18.80;99.90;;;;;;5050501;28;20036;-33
2023/05/28 07:55:07;;;;;;;10.98;5.40;;;18.80;99.90;;;;;;5050649;28;20043;-33
2023/05/28 07:57:33;;;;;;;11.57;5.95;;;19.00;99.90;;;;;;5050406;28;20400;-33
2023/05/28 08:00:00;;;;;;;11.25;5.28;;;19.00;99.90;;;;;;5050417;28;20049;-33
2023/05/28 08:02:26;;;;;;;13.00;6.60;;;19.20;99.90;;;;;;5078068;28;20053;-33
2023/05/28 08:04:53;;;;;;;11.30;5.03;;;19.20;99.90;;;;;;5070128;28;20040;-33
2023/05/28 08:07:19;;;;;;;11.35;6.00;;;19.50;99.90;;;;;;5070240;28;20048;-33
2023/05/28 08:09:45;;;;;;;13.38;5.90;;;19.60;99.90;;;;;;5062829;28;20041;-33
2023/05/28 08:12:11;;;;;;;13.23;6.05;;;19.70;99.90;;;;;;5039007;28;20048;-33
2023/05/28 08:14:37;;;;;;;11.32;5.95;;;19.80;99.90;;;;;;5053451;28;20089;-33
2023/05/28 08:17:04;;;;;;;13.02;5.88;;;20.00;99.90;;;;;;5071668;28;20036;-33
2023/05/28 08:19:30;;;;;;;14.27;5.97;;;20.20;99.90;;;;;;5053421;28;20555;-33
2023/05/28 08:21:55;;;;;;;10.50;5.38;;;20.40;99.90;;;;;;5058422;28;20033;-33
2023/05/28 08:24:21;;;;;;;10.25;5.13;;;20.60;99.90;;;;;;5068058;28;20040;-35
2023/05/28 08:26:47;;;;;;;13.23;5.53;;;20.90;99.90;;;;;;5070210;28;20037;-33
2023/05/28 08:29:13;;;;;;;10.40;5.50;;;20.90;99.90;;;;;;5064546;28;20033;-35
2023/05/28 08:31:38;;;;;;;9.35;5.43;;;20.90;99.90;;;;;;5050277;28;20029;-33
2023/05/28 08:34:04;;;;;;;10.00;5.78;;;21.10;99.90;;;;;;5049909;28;20044;-35
2023/05/28 08:36:31;;;;;;;8.02;4.70;;;21.20;99.90;;;;;;5049983;28;20037;-33
2023/05/28 08:38:57;;;;;;;11.30;5.22;;;21.50;99.90;;;;;;5069753;28;20498;-33
2023/05/28 08:41:24;;;;;;;12.25;5.57;;;21.50;99.90;;;;;;5070043;28;20099;-33
2023/05/28 08:43:49;;;;;;;9.45;5.05;;;21.70;99.90;;;;;;5069951;28;20037;-33
2023/05/28 08:46:16;;;;;;;10.68;5.38;;;21.70;99.90;;;;;;5073163;28;20047;-33
2023/05/28 08:48:43;;;;;;;10.32;5.35;;;21.80;99.90;;;;;;5056417;28;20040;-33
2023/05/28 08:51:11;;;;;;;9.18;4.68;;;21.80;98.60;;;;;;5054742;28;20048;-33
2023/05/28 08:53:43;;;;;;;10.63;5.10;;;21.80;96.30;;;;;;5069458;28;20090;-33
2023/05/28 08:56:10;;;;;;;11.27;5.18;;;22.10;92.00;;;;;;5073088;28;20044;-33
2023/05/28 08:58:38;;;;;;;10.63;5.90;;;22.30;93.30;;;;;;5042392;28;20041;-33
2023/05/28 09:01:08;;;;;;;9.82;5.38;;;22.40;89.00;;;;;;5074053;28;20105;-33
2023/05/28 09:03:35;;;;;;;9.32;4.80;;;22.40;81.00;;;;;;5073219;28;20076;-33
2023/05/28 09:06:01;;;;;;;9.00;4.97;;;22.50;83.70;;;;;;5074061;28;20417;-33
2023/05/28 09:08:28;;;;;;;10.52;5.82;;;22.50;78.10;;;;;;5073186;28;20178;-33
2023/05/28 09:10:56;;;;;;;11.45;5.25;;;22.60;75.60;;;;;;5073114;28;20043;-33
2023/05/28 09:13:23;;;;;;;11.55;5.80;;;22.80;73.50;;;;;;5044429;28;20036;-34
2023/05/28 09:15:53;;;;;;;10.73;5.47;;;23.00;74.10;;;;;;5054990;28;20037;-33
2023/05/28 09:18:22;;;;;;;9.88;5.55;;;23.10;72.00;;;;;;5051117;28;20337;-33
2023/05/28 09:20:48;;;;;;;9.98;5.45;;;23.30;71.00;;;;;;5056958;28;20513;-33
2023/05/28 09:23:17;;;;;;;10.15;5.35;;;23.40;72.10;;;;;;5072922;28;20123;-34
2023/05/28 09:25:46;;;;;;;10.43;5.53;;;23.40;69.30;;;;;;5072272;28;20047;-33
2023/05/28 09:28:15;;;;;;;9.07;6.15;;;23.60;65.70;;;;;;5069542;28;20029;-33
2023/05/28 09:30:41;;;;;;;11.57;6.07;;;23.70;67.00;;;;;;5052809;28;20391;-33
2023/05/28 09:33:09;;;;;;;11.00;5.57;;;23.90;66.40;;;;;;5043874;28;20037;-33
2023/05/28 09:35:35;;;;;;;9.18;5.47;;;24.00;65.80;;;;;;5058162;28;20041;-34
2023/05/28 09:38:08;;;;;;;12.02;6.18;;;24.20;66.30;;;;;;5052220;28;20040;-33
2023/05/28 09:40:41;;;;;;;9.98;5.85;;;24.50;63.40;;;;;;5052235;28;20052;-33
2023/05/28 09:43:09;;;;;;;10.80;5.88;;;24.70;61.90;;;;;;5051981;28;20041;-34
2023/05/28 09:45:35;;;;;;;8.40;5.88;;;24.90;63.30;;;;;;5056637;28;20029;-34
2023/05/28 09:48:01;;;;;;;9.98;6.10;;;24.90;60.90;;;;;;5051546;28;20037;-34
2023/05/28 09:50:27;;;;;;;8.77;5.70;;;25.00;61.00;;;;;;5034987;28;20037;-34
2023/05/28 09:52:57;;;;;;;10.55;6.32;;;24.90;60.30;;;;;;5063529;28;20063;-34
2023/05/28 09:55:25;;;;;;;10.30;6.13;;;25.10;58.70;;;;;;5051996;28;20041;-34
2023/05/28 09:58:02;;;;;;;11.73;5.38;;;24.90;57.70;;;;;;5052126;28;20072;-34
2023/05/28 10:00:54;;;;;;;9.73;6.10;;;25.10;57.20;;;;;;5065192;28;20093;-34
2023/05/28 10:03:23;;;;;;;8.50;5.65;;;25.30;57.40;;;;;;5072129;28;20041;-34
2023/05/28 10:05:52;;;;;;;10.07;5.63;;;25.70;57.70;;;;;;5071672;28;20041;-34
2023/05/28 10:08:21;;;;;;;8.25;5.60;;;25.80;55.80;;;;;;5071469;28;20041;-34
2023/05/28 10:10:52;;;;;;;9.93;5.53;;;25.80;55.70;;;;;;5071828;28;20037;-34
2023/05/28 10:13:17;;;;;;;11.13;6.15;;;25.80;54.50;;;;;;5071890;28;20090;-34
2023/05/28 10:15:45;;;;;;;8.98;5.18;;;26.00;55.70;;;;;;5057525;28;20044;-34
2023/05/28 10:18:14;;;;;;;8.00;5.03;;;26.20;55.20;;;;;;5061985;28;20052;-34
2023/05/28 10:20:40;;;;;;;8.57;5.53;;;26.20;54.70;;;;;;5053618;28;20048;-34
2023/05/28 10:23:07;;;;;;;10.48;5.53;;;26.20;53.10;;;;;;5059078;28;20040;-34
2023/05/28 10:25:34;;;;;;;9.10;5.60;;;26.30;53.90;;;;;;5071581;28;20043;-34
2023/05/28 10:28:03;;;;;;;10.45;5.80;;;26.50;53.80;;;;;;5058617;28;20611;-34
2023/05/28 10:30:35;;;;;;;7.03;4.80;;;26.50;52.30;;;;;;5059284;28;20041;-34
2023/05/28 10:33:16;;;;;;;9.93;5.50;;;26.60;51.40;;;;;;5071459;28;20066;-34
2023/05/28 10:35:56;;;;;;;6.97;5.25;;;26.70;52.20;;;;;;5071281;28;20037;-35
2023/05/28 10:38:22;;;;;;;8.52;4.93;;;26.70;50.40;;;;;;5069459;28;20071;-34
2023/05/28 10:40:48;;;;;;;10.00;5.15;;;26.90;52.00;;;;;;5071422;28;20075;-35
2023/05/28 10:43:39;;;;;;;9.10;5.88;;;27.00;51.00;;;;;;5070655;28;20068;-34
2023/05/28 10:46:15;;;;;;;5.90;4.78;;;27.40;50.60;;;;;;5061289;28;20389;-34
2023/05/28 10:48:42;;;;;;;7.47;5.40;;;27.60;50.30;;;;;;5066000;28;20033;-34
2023/05/28 10:51:08;;;;;;;7.90;5.10;;;27.60;49.70;;;;;;5050819;28;20041;-34
2023/05/28 10:53:34;;;;;;;5.85;4.68;;;27.70;49.40;;;;;;5066621;28;20553;-34
2023/05/28 10:56:02;;;;;;;8.45;5.43;;;27.60;49.50;;;;;;5062058;28;20136;-34
2023/05/28 10:58:28;;;;;;;8.02;5.72;;;27.60;48.50;;;;;;5050652;28;20041;-34
2023/05/28 11:01:04;;;;;;;8.13;5.38;;;27.60;48.50;;;;;;5050794;28;20041;-34
2023/05/28 11:03:44;;;;;;;9.15;5.53;;;27.80;46.40;;;;;;5051081;28;20037;-34
2023/05/28 11:06:11;;;;;;;6.57;5.07;;;27.90;47.30;;;;;;5061796;28;20036;-34
2023/05/28 11:08:44;;;;;;;7.50;4.68;;;27.80;47.30;;;;;;5051432;28;20491;-34
2023/05/28 11:11:15;;;;;;;8.55;5.35;;;27.90;47.60;;;;;;5063103;28;20044;-34
2023/05/28 11:13:48;;;;;;;8.15;4.82;;;27.90;45.70;;;;;;5051041;28;20115;-34
2023/05/28 11:16:18;;;;;;;6.90;5.15;;;28.10;44.70;;;;;;5072928;28;20052;-34
2023/05/28 11:19:09;;;;;;;6.35;5.22;;;28.00;45.00;;;;;;5071701;28;20183;-34
2023/05/28 11:21:52;;;;;;;7.85;4.40;;;28.30;44.80;;;;;;5062674;28;20041;-34
2023/05/28 11:24:18;;;;;;;7.82;5.40;;;28.30;44.20;;;;;;5038292;28;20118;-34
2023/05/28 11:26:44;;;;;;;7.78;4.65;;;28.30;43.40;;;;;;5071420;28;20486;-34
2023/05/28 11:29:12;;;;;;;7.85;4.80;;;28.20;43.70;;;;;;5071304;28;20477;-34
2023/05/28 11:31:40;;;;;;;8.68;5.35;;;28.00;44.50;;;;;;5071492;28;20057;-34
2023/05/28 11:34:06;;;;;;;6.18;4.60;;;28.20;43.70;;;;;;5071598;28;20397;-34
2023/05/28 11:36:41;;;;;;;5.50;4.50;;;28.60;44.40;;;;;;5071586;28;20124;-34
2023/05/28 11:39:07;;;;;;;6.50;4.75;;;29.00;44.40;;;;;;5071007;28;20052;-41
2023/05/28 11:41:33;;;;;;;7.05;5.00;;;28.60;42.50;;;;;;5064347;28;20052;-38
2023/05/28 11:43:59;;;;;;;7.05;4.68;;;28.40;42.20;;;;;;5057794;28;20119;-38
2023/05/28 11:46:25;;;;;;;8.80;5.22;;;28.40;42.30;;;;;;5067758;28;20040;-37
2023/05/28 11:48:51;;;;;;;6.53;4.78;;;28.40;41.90;;;;;;5056249;28;20517;-39
2023/05/28 11:51:20;;;;;;;7.75;4.78;;;28.30;41.40;;;;;;5064525;28;20037;-36
2023/05/28 11:53:46;;;;;;;8.57;4.70;;;28.20;42.20;;;;;;5070254;28;20086;-34
2023/05/28 11:56:12;;;;;;;6.05;4.53;;;28.40;41.90;;;;;;5046574;28;20041;-34
2023/05/28 11:58:44;;;;;;;6.88;4.75;;;28.60;41.70;;;;;;5066736;28;20090;-34
2023/05/28 12:01:17;;;;;;;5.95;4.60;;;28.80;40.90;;;;;;5072356;28;20115;-34
2023/05/28 12:03:42;;;;;;;;;;;29.00;40.40;;;;;;5071319;28;20037;-35
2023/05/28 12:06:08;;;;;;;6.38;4.82;;;29.00;40.40;;;;;;5063124;28;20331;-34
2023/05/28 12:08:37;;;;;;;7.55;4.97;;;29.30;40.50;;;;;;5051071;28;20041;-34
2023/05/28 12:11:03;;;;;;;6.35;4.68;;;29.20;40.90;;;;;;5069755;28;20035;-34
2023/05/28 12:13:35;;;;;;;6.32;4.22;;;29.40;40.10;;;;;;5073875;28;20468;-34
2023/05/28 12:16:09;;;;;;;5.10;3.97;;;29.40;38.20;;;;;;5040169;28;20133;-34
2023/05/28 12:18:43;;;;;;;6.45;4.03;;;29.00;36.10;;;;;;5054527;28;20067;-34
2023/05/28 12:21:12;;;;;;;5.45;4.28;;;29.20;38.20;;;;;;5063027;28;20036;-38
2023/05/28 12:23:38;;;;;;;6.05;4.13;;;29.50;38.40;;;;;;5064875;28;20044;-37
2023/05/28 12:26:09;;;;;;;4.82;4.07;;;29.60;37.70;;;;;;5072260;28;20040;-36
2023/05/28 12:28:39;;;;;;;3.90;3.58;;;29.70;37.60;;;;;;5067860;28;20528;-36
2023/05/28 12:31:06;;;;;;;3.70;3.38;;;29.70;37.50;;;;;;5065254;28;20427;-37
2023/05/28 12:33:32;;;;;;;4.70;4.03;;;29.80;37.00;;;;;;5063969;28;20037;-37
2023/05/28 12:35:59;;;;;;;5.03;3.70;;;29.80;35.60;;;;;;5069583;28;20115;-38
2023/05/28 12:38:26;;;;;;;5.32;4.13;;;29.90;36.50;;;;;;5066250;28;20133;-38
2023/05/28 12:40:59;;;;;;;4.50;3.72;;;30.30;36.30;;;;;;5059482;28;20072;-37